Time;durP1;ratioP1;P1;durP2;ratioP2;P2;SDS_P1;SDS_P2;PMS_P1;PMS_P2;Temp;Humidity;BMP_temperature;BMP_pressure;BME280_temperature;BME280_humidity;BME280_pressure;Samples;Min_cycle;Max_cycle;Signal;HPM_P1;HPM_P2
2022/04/25 00:00:53;;;;;;;18.07;16.17;;;15.60;65.60;;;;;;5020615;28;20197;-40
2022/04/25 00:03:19;;;;;;;16.60;14.90;;;15.60;65.60;;;;;;5028693;28;20197;-40
2022/04/25 00:05:44;;;;;;;17.77;16.00;;;15.70;65.30;;;;;;5026996;28;20189;-40
2022/04/25 00:08:10;;;;;;;17.97;16.17;;;15.70;65.00;;;;;;5024411;28;20203;-41
2022/04/25 00:10:35;;;;;;;17.83;16.03;;;15.80;65.10;;;;;;5023964;28;20276;-40
2022/04/25 00:13:01;;;;;;;18.60;16.30;;;15.90;64.90;;;;;;5026356;28;20193;-40
2022/04/25 00:15:27;;;;;;;16.80;14.50;;;15.90;64.50;;;;;;5027751;28;20227;-40
2022/04/25 00:17:53;;;;;;;19.10;17.10;;;16.00;64.40;;;;;;5016055;28;20201;-40
2022/04/25 00:20:18;;;;;;;17.47;15.67;;;16.10;64.30;;;;;;5024234;28;20500;-40
2022/04/25 00:22:46;;;;;;;19.73;17.73;;;16.10;63.90;;;;;;5026778;28;20250;-43
2022/04/25 00:25:12;;;;;;;18.43;16.63;;;16.00;64.20;;;;;;5022784;28;20204;-40
2022/04/25 00:27:38;;;;;;;20.20;17.43;;;16.00;64.40;;;;;;5027961;28;20478;-41
2022/04/25 00:30:04;;;;;;;19.50;17.43;;;16.00;64.30;;;;;;5022496;28;20451;-41
2022/04/25 00:32:30;;;;;;;17.93;14.20;;;15.90;64.50;;;;;;5026996;28;20208;-41
2022/04/25 00:34:55;;;;;;;18.30;16.50;;;15.90;64.70;;;;;;5025979;28;20451;-41
2022/04/25 00:37:21;;;;;;;19.07;16.80;;;15.80;65.00;;;;;;5023198;28;20229;-41
2022/04/25 00:39:46;;;;;;;18.80;16.90;;;15.80;65.10;;;;;;5020593;28;20231;-41
2022/04/25 00:42:12;;;;;;;19.30;17.40;;;15.80;65.20;;;;;;5015901;28;20247;-41
2022/04/25 00:44:38;;;;;;;18.87;16.97;;;15.80;65.40;;;;;;5018502;28;20518;-41
2022/04/25 00:47:04;;;;;;;18.27;16.37;;;15.80;65.40;;;;;;5027554;28;20248;-41
2022/04/25 00:49:30;;;;;;;18.67;16.77;;;15.70;65.40;;;;;;5027195;28;20384;-41
2022/04/25 00:51:56;;;;;;;19.23;16.10;;;15.60;65.40;;;;;;5021800;28;20464;-41
2022/04/25 00:54:22;;;;;;;19.93;17.63;;;15.60;65.90;;;;;;5026099;28;20440;-41
2022/04/25 00:56:49;;;;;;;20.53;18.00;;;15.70;65.70;;;;;;5022627;28;20228;-41
2022/04/25 00:59:21;;;;;;;19.60;17.70;;;15.50;65.60;;;;;;5022857;28;20448;-41
2022/04/25 01:01:47;;;;;;;20.70;18.47;;;15.50;66.20;;;;;;5016815;28;20436;-41
2022/04/25 01:04:13;;;;;;;20.30;18.20;;;15.40;66.50;;;;;;5026256;28;20924;-41
2022/04/25 01:06:39;;;;;;;19.90;17.90;;;15.50;66.20;;;;;;5026903;28;20927;-40
2022/04/25 01:09:05;;;;;;;20.23;18.23;;;15.50;66.10;;;;;;5022706;28;20443;-41
2022/04/25 01:11:31;;;;;;;20.37;18.20;;;15.50;66.00;;;;;;5028697;28;20200;-41
2022/04/25 01:13:57;;;;;;;21.00;18.80;;;15.50;66.10;;;;;;5024232;28;20428;-41
2022/04/25 01:16:22;;;;;;;20.17;18.17;;;15.40;66.20;;;;;;5022682;28;20372;-40
2022/04/25 01:18:48;;;;;;;21.13;18.93;;;15.40;66.60;;;;;;5024497;28;20593;-41
2022/04/25 01:21:17;;;;;;;21.97;19.70;;;15.40;66.60;;;;;;5027076;28;20282;-41
2022/04/25 01:29:12;;;;;;;23.70;21.27;;;15.40;65.70;;;;;;5022098;28;20454;-41
2022/04/25 01:31:38;;;;;;;23.70;21.17;;;15.30;65.70;;;;;;5022478;28;20452;-40
2022/04/25 01:34:04;;;;;;;23.53;21.03;;;15.10;65.60;;;;;;5025931;28;20436;-41
2022/04/25 01:36:30;;;;;;;22.30;19.90;;;15.10;65.50;;;;;;5030067;28;20229;-40
2022/04/25 01:38:56;;;;;;;24.37;21.87;;;15.10;65.60;;;;;;5024666;28;20888;-41
2022/04/25 01:41:22;;;;;;;23.43;21.13;;;14.90;66.50;;;;;;5026824;28;20448;-41
2022/04/25 01:43:48;;;;;;;23.30;20.80;;;14.80;66.80;;;;;;5026015;28;20196;-41
2022/04/25 01:46:14;;;;;;;23.70;21.30;;;14.80;66.90;;;;;;5021777;28;20272;-41
2022/04/25 01:48:40;;;;;;;26.57;23.37;;;14.80;66.70;;;;;;5027373;28;20602;-41
2022/04/25 01:51:06;;;;;;;25.70;22.70;;;14.70;67.20;;;;;;5031121;28;20200;-40
2022/04/25 01:53:31;;;;;;;25.53;22.93;;;14.70;67.10;;;;;;5029159;28;20240;-41
2022/04/25 01:55:57;;;;;;;24.90;20.40;;;14.60;67.20;;;;;;5029479;28;20753;-41
2022/04/25 01:58:25;;;;;;;23.90;21.50;;;14.60;67.00;;;;;;5021806;28;20228;-41
2022/04/25 02:00:50;;;;;;;27.00;24.17;;;14.50;67.60;;;;;;5026357;28;20459;-41
2022/04/25 02:03:16;;;;;;;24.30;21.80;;;14.50;67.70;;;;;;5024832;28;20547;-40
2022/04/25 02:05:41;;;;;;;24.77;22.07;;;14.50;68.00;;;;;;5020920;28;20567;-40
2022/04/25 02:08:07;;;;;;;26.97;24.17;;;14.50;67.70;;;;;;5022290;28;20297;-41
2022/04/25 02:10:33;;;;;;;23.80;21.23;;;14.50;67.50;;;;;;5025851;28;20197;-41
2022/04/25 02:12:58;;;;;;;26.00;21.80;;;14.60;67.40;;;;;;5029006;28;20283;-41
2022/04/25 02:15:24;;;;;;;24.80;22.13;;;14.70;67.00;;;;;;5025781;28;20255;-41
2022/04/25 02:17:50;;;;;;;24.03;21.07;;;14.70;67.60;;;;;;5024956;28;20216;-41
2022/04/25 02:20:16;;;;;;;24.67;21.93;;;14.70;66.60;;;;;;5028162;28;20432;-41
2022/04/25 02:22:42;;;;;;;24.40;21.83;;;14.80;66.40;;;;;;5020677;28;20940;-40
2022/04/25 02:25:09;;;;;;;25.13;22.63;;;14.70;67.30;;;;;;5025740;28;20373;-41
2022/04/25 02:27:34;;;;;;;26.57;22.60;;;14.60;66.60;;;;;;5030661;28;20873;-41
2022/04/25 02:30:00;;;;;;;25.30;22.60;;;14.70;66.50;;;;;;5013493;28;20531;-40
2022/04/25 02:32:27;;;;;;;25.70;22.43;;;14.60;66.40;;;;;;5018458;28;20754;-41
2022/04/25 02:34:54;;;;;;;23.93;21.33;;;14.60;66.30;;;;;;5021202;28;20201;-40
2022/04/25 02:37:20;;;;;;;24.43;21.67;;;14.40;66.80;;;;;;5023537;28;20516;-41
2022/04/25 02:39:46;;;;;;;25.80;23.07;;;14.30;67.30;;;;;;5025024;28;20531;-41
2022/04/25 02:42:12;;;;;;;25.70;23.00;;;14.30;67.50;;;;;;5017257;28;20547;-41
2022/04/25 02:44:38;;;;;;;24.80;22.20;;;14.30;67.80;;;;;;5018956;28;20204;-41
2022/04/25 02:47:04;;;;;;;23.27;20.77;;;14.30;67.60;;;;;;5027304;28;20734;-40
2022/04/25 02:49:30;;;;;;;24.33;21.93;;;14.40;67.50;;;;;;5029069;28;20534;-40
2022/04/25 02:51:55;;;;;;;27.80;22.83;;;14.50;67.00;;;;;;5025735;28;20507;-41
2022/04/25 02:54:21;;;;;;;26.03;23.03;;;14.60;66.60;;;;;;5030205;28;20212;-41
2022/04/25 02:56:48;;;;;;;23.93;21.07;;;14.50;66.60;;;;;;5028071;28;20748;-41
2022/04/25 02:59:14;;;;;;;24.03;21.47;;;14.60;66.50;;;;;;5028887;28;20193;-41
2022/04/25 03:01:40;;;;;;;23.67;21.17;;;14.60;66.30;;;;;;5024992;28;20436;-41
2022/04/25 03:04:06;;;;;;;23.13;20.73;;;14.70;66.20;;;;;;5029845;28;20523;-41
2022/04/25 03:06:31;;;;;;;26.17;23.57;;;14.60;66.60;;;;;;5027767;28;20535;-41
2022/04/25 03:08:57;;;;;;;26.10;22.60;;;14.60;66.60;;;;;;5029404;28;20208;-40
2022/04/25 03:11:23;;;;;;;25.80;23.00;;;14.70;66.30;;;;;;5015608;28;20200;-41
2022/04/25 03:13:50;;;;;;;24.70;22.10;;;14.80;66.00;;;;;;5024311;28;20341;-41
2022/04/25 03:16:17;;;;;;;24.13;21.60;;;14.90;65.80;;;;;;5024496;28;20347;-41
2022/04/25 03:18:43;;;;;;;25.30;22.70;;;14.90;65.60;;;;;;5029314;28;20501;-41
2022/04/25 03:21:08;;;;;;;26.03;22.50;;;14.90;65.90;;;;;;5021393;28;21129;-41
2022/04/25 03:23:36;;;;;;;24.43;21.93;;;14.90;65.70;;;;;;5024446;28;20209;-41
2022/04/25 03:26:01;;;;;;;24.00;21.53;;;15.00;65.80;;;;;;5016616;28;20695;-41
2022/04/25 03:28:27;;;;;;;25.10;22.47;;;15.00;65.60;;;;;;5024088;28;20439;-41
2022/04/25 03:30:52;;;;;;;23.97;21.50;;;15.00;65.40;;;;;;5024225;28;20597;-41
2022/04/25 03:33:19;;;;;;;23.90;21.33;;;15.10;65.40;;;;;;5028617;28;20217;-41
2022/04/25 03:35:48;;;;;;;29.70;22.43;;;15.10;65.30;;;;;;5028529;28;20327;-40
2022/04/25 03:38:17;;;;;;;22.80;20.43;;;15.10;65.20;;;;;;5020538;28;21050;-41
2022/04/25 03:40:43;;;;;;;24.67;21.67;;;15.20;64.90;;;;;;5013283;28;20447;-41
2022/04/25 03:43:09;;;;;;;23.77;21.27;;;15.20;64.70;;;;;;5029383;28;20535;-41
2022/04/25 03:45:35;;;;;;;25.63;22.83;;;15.20;64.70;;;;;;5022861;28;20966;-41
2022/04/25 03:48:01;;;;;;;22.70;20.40;;;15.30;64.80;;;;;;5021750;28;20475;-41
2022/04/25 03:50:27;;;;;;;22.30;19.90;;;15.30;64.50;;;;;;5024276;28;20235;-41
2022/04/25 03:52:52;;;;;;;25.80;23.10;;;15.40;64.30;;;;;;5026587;28;20826;-41
2022/04/25 03:58:07;;;;;;;23.43;20.93;;;15.40;64.80;;;;;;5022937;28;20311;-41
2022/04/25 04:00:34;;;;;;;29.50;25.63;;;15.40;64.00;;;;;;5022730;28;20452;-41
2022/04/25 04:03:00;;;;;;;27.67;24.43;;;15.30;64.10;;;;;;5025786;28;20476;-41
2022/04/25 04:05:26;;;;;;;24.57;21.83;;;15.30;64.30;;;;;;5026573;28;20472;-41
2022/04/25 04:07:53;;;;;;;23.80;21.30;;;15.30;64.60;;;;;;5025999;28;20502;-40
2022/04/25 04:10:19;;;;;;;24.23;21.73;;;15.30;64.60;;;;;;5016692;28;20828;-41
2022/04/25 04:12:48;;;;;;;25.10;22.40;;;15.30;64.50;;;;;;5028003;28;20436;-41
2022/04/25 04:15:15;;;;;;;24.90;22.33;;;15.30;64.40;;;;;;5026780;28;20367;-41
2022/04/25 04:17:41;;;;;;;24.50;21.97;;;15.30;64.60;;;;;;5024020;28;20502;-41
2022/04/25 04:20:08;;;;;;;24.97;22.47;;;15.30;64.50;;;;;;5025668;28;20444;-41
2022/04/25 04:22:36;;;;;;;24.13;21.70;;;15.20;64.30;;;;;;5021474;28;20457;-41
2022/04/25 04:25:04;;;;;;;24.63;22.03;;;15.20;64.40;;;;;;5017188;28;20447;-40
2022/04/25 04:27:32;;;;;;;25.93;23.27;;;15.20;64.50;;;;;;5023601;28;20440;-41
2022/04/25 04:30:00;;;;;;;25.37;22.50;;;15.00;64.40;;;;;;5013952;28;20439;-40
2022/04/25 04:32:29;;;;;;;25.10;22.37;;;15.00;64.60;;;;;;5020909;28;20442;-41
2022/04/25 04:34:55;;;;;;;25.00;22.50;;;15.10;64.50;;;;;;5027863;28;20923;-41
2022/04/25 04:37:20;;;;;;;24.60;21.70;;;15.00;64.70;;;;;;5023434;28;20492;-41
2022/04/25 04:39:46;;;;;;;26.27;21.80;;;15.00;64.50;;;;;;5021184;28;20432;-41
2022/04/25 04:42:12;;;;;;;25.17;22.60;;;15.20;64.30;;;;;;5025611;28;20231;-40
2022/04/25 04:44:37;;;;;;;26.33;23.03;;;15.20;64.00;;;;;;5026299;28;20201;-41
2022/04/25 04:47:03;;;;;;;26.00;23.13;;;15.20;63.90;;;;;;5024928;28;20434;-40
2022/04/25 04:49:29;;;;;;;27.30;24.40;;;15.20;63.90;;;;;;5026793;28;20672;-41
2022/04/25 04:51:54;;;;;;;26.17;23.47;;;15.10;64.00;;;;;;5019762;28;20452;-41
2022/04/25 04:54:20;;;;;;;25.83;23.17;;;15.10;64.00;;;;;;5028731;28;20279;-40
2022/04/25 04:56:46;;;;;;;25.80;22.90;;;15.20;63.70;;;;;;5014461;28;20275;-41
2022/04/25 04:59:11;;;;;;;25.20;22.43;;;15.20;63.40;;;;;;5023592;28;20197;-41
2022/04/25 05:01:38;;;;;;;26.63;23.57;;;15.20;63.50;;;;;;5025203;28;20197;-40
2022/04/25 05:04:04;;;;;;;28.07;25.00;;;15.20;63.20;;;;;;5025119;28;20204;-41
2022/04/25 05:06:30;;;;;;;28.57;24.30;;;15.30;63.20;;;;;;5015530;28;20452;-41
2022/04/25 05:08:56;;;;;;;27.20;24.40;;;15.20;63.00;;;;;;5028251;28;20446;-41
2022/04/25 05:11:22;;;;;;;27.07;23.93;;;15.10;62.90;;;;;;5030699;28;20202;-41
2022/04/25 05:13:48;;;;;;;27.93;24.23;;;15.10;62.90;;;;;;5026039;28;20912;-41
2022/04/25 05:16:14;;;;;;;28.00;25.00;;;15.10;63.00;;;;;;5030658;28;20263;-40
2022/04/25 05:18:39;;;;;;;25.57;22.83;;;15.10;63.40;;;;;;5026595;28;20475;-40
2022/04/25 05:21:05;;;;;;;25.60;22.70;;;15.20;63.50;;;;;;5027231;28;20220;-40
2022/04/25 05:23:32;;;;;;;27.17;24.27;;;15.20;63.20;;;;;;5029348;28;20197;-40
2022/04/25 05:25:58;;;;;;;26.83;23.93;;;15.30;63.00;;;;;;5025373;28;20440;-40
2022/04/25 05:28:28;;;;;;;26.83;23.67;;;15.40;62.80;;;;;;5029396;28;20966;-40
2022/04/25 05:30:54;;;;;;;26.27;23.57;;;15.40;62.80;;;;;;5023147;28;20440;-40
2022/04/25 05:33:20;;;;;;;23.60;21.10;;;15.40;62.60;;;;;;5026861;28;20788;-41
2022/04/25 05:35:46;;;;;;;24.90;22.17;;;15.50;62.60;;;;;;5019520;28;20238;-40
2022/04/25 05:38:12;;;;;;;26.63;23.83;;;15.60;62.60;;;;;;5025560;28;20198;-40
2022/04/25 05:40:39;;;;;;;26.80;23.93;;;15.60;62.00;;;;;;5017178;28;20216;-40
2022/04/25 05:43:06;;;;;;;24.50;21.43;;;15.70;61.50;;;;;;5024895;28;20813;-40
2022/04/25 05:45:33;;;;;;;27.00;24.17;;;15.70;61.40;;;;;;5020912;28;20539;-40
2022/04/25 05:47:59;;;;;;;26.60;23.57;;;15.80;62.00;;;;;;5030732;28;20533;-40
2022/04/25 05:53:11;;;;;;;27.13;23.13;;;15.90;60.70;;;;;;5029992;28;20533;-40
2022/04/25 05:55:37;;;;;;;25.37;22.67;;;15.80;60.40;;;;;;5028224;28;20995;-40
2022/04/25 05:58:04;;;;;;;26.13;22.97;;;15.90;60.70;;;;;;5022311;28;20566;-41
2022/04/25 06:00:31;;;;;;;24.83;22.03;;;15.90;60.50;;;;;;5022308;28;20448;-40
2022/04/25 06:02:57;;;;;;;26.07;22.90;;;15.80;60.70;;;;;;5025066;28;20905;-40
2022/04/25 06:05:23;;;;;;;25.20;22.53;;;15.80;60.50;;;;;;5031417;28;20448;-41
2022/04/25 06:07:49;;;;;;;25.33;22.80;;;15.80;60.50;;;;;;5031165;28;20444;-40
2022/04/25 06:10:16;;;;;;;23.73;21.33;;;15.90;60.00;;;;;;5032395;28;21183;-41
2022/04/25 06:12:45;;;;;;;26.70;22.60;;;16.00;59.70;;;;;;5029583;28;20432;-40
2022/04/25 06:15:11;;;;;;;27.47;22.60;;;16.10;59.40;;;;;;5021213;28;20942;-40
2022/04/25 06:17:37;;;;;;;24.03;21.53;;;16.00;59.10;;;;;;5029626;28;20495;-40
2022/04/25 06:20:07;;;;;;;24.70;22.10;;;16.10;59.30;;;;;;5027225;28;20478;-40
2022/04/25 06:22:33;;;;;;;23.10;20.80;;;16.30;59.40;;;;;;5029320;28;20466;-40
2022/04/25 06:24:58;;;;;;;25.63;23.00;;;16.30;58.90;;;;;;5025825;28;22219;-41
2022/04/25 06:27:24;;;;;;;25.10;22.50;;;16.40;58.40;;;;;;5030373;28;20440;-40
2022/04/25 06:29:52;;;;;;;24.20;20.47;;;16.60;58.30;;;;;;5025258;28;20722;-40
2022/04/25 06:32:18;;;;;;;26.20;23.50;;;16.80;57.60;;;;;;5022556;28;20623;-40
2022/04/25 06:34:44;;;;;;;24.47;21.93;;;16.90;57.70;;;;;;5030403;28;20471;-41
2022/04/25 06:37:10;;;;;;;23.63;21.23;;;16.90;57.00;;;;;;5029285;28;20967;-40
2022/04/25 06:39:35;;;;;;;23.17;20.77;;;17.00;56.70;;;;;;5032434;28;20225;-40
2022/04/25 06:42:01;;;;;;;24.17;21.40;;;17.10;56.60;;;;;;5030509;28;20196;-40
2022/04/25 06:44:27;;;;;;;23.30;20.93;;;17.30;56.50;;;;;;5028750;28;20603;-41
2022/04/25 06:46:53;;;;;;;25.60;22.87;;;17.40;56.10;;;;;;5031493;28;20197;-41
2022/04/25 06:49:23;;;;;;;24.30;20.83;;;17.60;55.70;;;;;;5030963;28;20678;-42
2022/04/25 06:51:59;;;;;;;23.10;20.70;;;17.60;55.10;;;;;;5037764;28;20202;-41
2022/04/25 06:54:26;;;;;;;24.87;22.43;;;17.60;55.00;;;;;;5029783;28;20447;-42
2022/04/25 06:56:56;;;;;;;23.53;21.03;;;17.70;55.00;;;;;;5030457;28;20490;-41
2022/04/25 06:59:23;;;;;;;20.37;18.37;;;17.80;54.90;;;;;;5023162;28;20857;-41
2022/04/25 07:01:49;;;;;;;24.43;21.83;;;17.80;55.00;;;;;;5028771;28;20452;-43
2022/04/25 07:04:16;;;;;;;24.73;22.23;;;17.90;54.80;;;;;;5028258;28;20448;-41
2022/04/25 07:06:43;;;;;;;25.43;22.83;;;18.00;54.70;;;;;;5024289;28;20471;-42
2022/04/25 07:09:12;;;;;;;25.50;22.90;;;18.10;54.90;;;;;;5029039;28;20447;-43
2022/04/25 07:11:43;;;;;;;28.70;24.13;;;18.10;55.10;;;;;;5023897;28;20975;-42
2022/04/25 07:14:14;;;;;;;22.97;20.57;;;18.10;54.80;;;;;;5026777;28;20440;-41
2022/04/25 07:16:40;;;;;;;24.37;21.97;;;18.30;55.50;;;;;;5029708;28;20488;-42
2022/04/25 07:19:06;;;;;;;23.50;21.10;;;18.40;55.70;;;;;;5022623;28;20452;-42
2022/04/25 07:29:47;;;;;;;23.43;21.07;;;18.70;54.30;;;;;;5031435;28;20431;-42
2022/04/25 07:32:14;;;;;;;24.40;22.03;;;18.90;55.40;;;;;;5028600;28;20447;-41
2022/04/25 07:34:41;;;;;;;24.43;22.03;;;18.90;54.50;;;;;;5028753;28;20566;-42
2022/04/25 07:37:07;;;;;;;22.27;20.13;;;19.10;54.90;;;;;;5028972;28;21330;-42
2022/04/25 07:39:32;;;;;;;22.33;19.93;;;19.20;54.00;;;;;;5022358;28;20498;-42
2022/04/25 07:41:58;;;;;;;23.20;20.90;;;19.20;53.00;;;;;;5027467;28;20220;-42
2022/04/25 07:44:25;;;;;;;22.53;20.23;;;19.10;52.80;;;;;;5024986;28;20230;-42
2022/04/25 07:46:50;;;;;;;17.87;16.27;;;19.30;52.80;;;;;;5028606;28;20201;-42
2022/04/25 07:49:16;;;;;;;16.93;15.43;;;19.40;51.60;;;;;;5025998;28;20436;-42
2022/04/25 07:51:41;;;;;;;18.70;17.03;;;19.30;50.60;;;;;;5023921;28;20264;-41
2022/04/25 07:54:09;;;;;;;18.47;16.80;;;19.40;51.60;;;;;;5024803;28;20217;-41
2022/04/25 07:56:36;;;;;;;18.03;16.33;;;19.70;53.10;;;;;;5028865;28;20229;-42
2022/04/25 07:59:01;;;;;;;19.33;17.63;;;19.90;51.00;;;;;;5026935;28;20443;-41
2022/04/25 08:01:28;;;;;;;19.27;17.43;;;20.00;50.10;;;;;;5016706;28;20436;-41
2022/04/25 08:03:54;;;;;;;21.30;19.30;;;20.10;49.60;;;;;;5022399;28;20586;-41
2022/04/25 08:06:23;;;;;;;17.43;15.73;;;20.10;49.20;;;;;;5022326;28;20443;-41
2022/04/25 08:08:50;;;;;;;18.90;17.20;;;20.20;49.00;;;;;;5015358;28;20470;-42
2022/04/25 08:11:16;;;;;;;19.40;17.53;;;19.90;49.10;;;;;;5021832;28;21020;-41
2022/04/25 08:19:13;;;;;;;18.60;16.90;;;19.80;50.30;;;;;;5025740;28;20904;-42
2022/04/25 08:21:39;;;;;;;18.03;16.33;;;19.90;50.30;;;;;;5023607;28;20440;-42
2022/04/25 08:24:05;;;;;;;16.37;14.77;;;19.80;50.10;;;;;;5023606;28;20449;-41
2022/04/25 08:26:31;;;;;;;14.83;13.50;;;19.80;48.50;;;;;;5014843;28;20453;-42
2022/04/25 08:28:57;;;;;;;17.97;16.37;;;19.80;47.90;;;;;;5018503;28;20197;-40
2022/04/25 08:31:23;;;;;;;16.30;14.63;;;19.90;48.60;;;;;;5018339;28;20263;-41
2022/04/25 08:33:48;;;;;;;18.40;16.73;;;19.80;48.50;;;;;;5021245;28;20439;-40
2022/04/25 08:36:16;;;;;;;15.40;14.00;;;19.90;49.00;;;;;;5020416;28;20609;-41
2022/04/25 08:38:43;;;;;;;17.73;14.07;;;20.00;48.30;;;;;;5024170;28;20194;-40
2022/04/25 08:41:10;;;;;;;14.47;13.20;;;20.10;48.90;;;;;;5021505;28;20955;-40
2022/04/25 08:43:39;;;;;;;12.93;11.73;;;20.10;49.70;;;;;;5025764;28;20974;-40
2022/04/25 08:46:07;;;;;;;12.80;11.70;;;20.10;48.40;;;;;;5025883;28;20531;-40
2022/04/25 08:48:34;;;;;;;13.87;12.57;;;20.10;47.70;;;;;;5034021;28;20573;-40
2022/04/25 08:51:00;;;;;;;12.50;11.40;;;20.30;47.10;;;;;;5022758;28;20451;-40
2022/04/25 08:53:28;;;;;;;15.47;14.17;;;20.50;47.30;;;;;;5030427;28;20512;-40
2022/04/25 08:55:54;;;;;;;14.50;13.20;;;20.60;45.70;;;;;;5033920;28;20459;-40
2022/04/25 08:58:21;;;;;;;15.93;14.43;;;20.90;46.50;;;;;;5034390;28;20536;-40
2022/04/25 09:00:47;;;;;;;14.13;12.80;;;21.00;47.50;;;;;;5024587;28;20454;-41
2022/04/25 09:03:14;;;;;;;19.13;15.93;;;21.20;46.40;;;;;;5031701;28;20439;-41
2022/04/25 09:05:40;;;;;;;14.37;13.00;;;21.30;44.90;;;;;;5030057;28;20272;-41
2022/04/25 09:08:07;;;;;;;15.07;13.70;;;21.30;45.00;;;;;;5033453;28;20449;-41
2022/04/25 09:10:36;;;;;;;14.83;13.47;;;21.30;44.70;;;;;;5027733;28;20543;-42
2022/04/25 09:13:02;;;;;;;16.13;14.73;;;21.30;45.80;;;;;;5031403;28;20440;-42
2022/04/25 09:15:27;;;;;;;15.07;13.63;;;21.30;46.00;;;;;;5033297;28;20783;-41
2022/04/25 09:17:55;;;;;;;17.13;15.53;;;21.20;46.00;;;;;;5033565;28;20227;-42
2022/04/25 09:20:22;;;;;;;15.37;13.87;;;21.20;46.50;;;;;;5026946;28;20255;-41
2022/04/25 09:22:48;;;;;;;15.00;13.60;;;21.20;47.00;;;;;;5032977;28;20454;-41
2022/04/25 09:25:15;;;;;;;16.47;14.97;;;21.20;45.70;;;;;;5032498;28;20546;-41
2022/04/25 09:27:42;;;;;;;14.90;13.60;;;21.20;46.00;;;;;;5032105;28;20540;-42
2022/04/25 09:30:21;;;;;;;13.93;12.77;;;21.20;45.40;;;;;;5025851;28;20440;-41
2022/04/25 09:32:48;;;;;;;14.03;12.90;;;21.30;44.90;;;;;;5025186;28;20454;-42
2022/04/25 09:35:40;;;;;;;15.60;14.30;;;21.30;44.70;;;;;;5033054;28;20463;-41
2022/04/25 09:38:08;;;;;;;14.30;12.80;;;21.30;45.00;;;;;;5025619;28;20456;-42
2022/04/25 09:40:36;;;;;;;14.67;13.30;;;21.20;45.30;;;;;;5030640;28;20476;-42
2022/04/25 09:43:13;;;;;;;15.10;13.70;;;21.10;46.90;;;;;;5024911;28;20479;-41
2022/04/25 09:45:42;;;;;;;14.93;13.67;;;21.30;45.20;;;;;;5023961;28;20455;-42
2022/04/25 09:48:23;;;;;;;13.33;12.23;;;21.40;45.60;;;;;;5027572;28;20475;-42
2022/04/25 09:51:24;;;;;;;14.53;13.03;;;21.40;43.30;;;;;;5027861;28;20481;-43
2022/04/25 09:53:52;;;;;;;16.60;15.10;;;21.50;43.40;;;;;;4960042;28;21007;-43
2022/04/25 09:56:18;;;;;;;14.73;13.50;;;21.60;43.00;;;;;;5007751;28;20911;-43
2022/04/25 09:58:59;;;;;;;16.67;15.17;;;21.50;43.50;;;;;;5021851;28;20452;-43
2022/04/25 10:01:25;;;;;;;15.37;13.97;;;21.40;43.70;;;;;;5018594;28;20483;-44
2022/04/25 10:03:50;;;;;;;15.50;14.10;;;21.40;44.40;;;;;;5022216;28;20960;-42
2022/04/25 10:06:16;;;;;;;15.23;13.93;;;21.40;44.00;;;;;;5025903;28;20193;-43
2022/04/25 10:08:43;;;;;;;15.43;14.00;;;21.30;43.90;;;;;;5016598;28;20190;-42
2022/04/25 10:11:10;;;;;;;14.30;13.07;;;21.30;43.40;;;;;;5023193;28;20677;-42
2022/04/25 10:13:36;;;;;;;14.70;13.20;;;21.30;43.10;;;;;;5013196;28;20507;-43
2022/04/25 10:16:02;;;;;;;15.57;14.17;;;21.40;43.90;;;;;;5024093;28;20483;-42
2022/04/25 10:18:31;;;;;;;14.77;13.47;;;21.60;44.80;;;;;;5015410;28;20444;-42
2022/04/25 10:20:58;;;;;;;15.03;13.73;;;21.80;44.20;;;;;;5026966;28;20474;-43
2022/04/25 10:23:25;;;;;;;13.20;12.00;;;21.90;44.30;;;;;;5027659;28;20942;-43
2022/04/25 10:25:54;;;;;;;14.27;12.97;;;22.10;45.40;;;;;;5018587;28;20501;-43
2022/04/25 10:28:39;;;;;;;14.77;13.47;;;22.30;44.30;;;;;;5022208;28;20447;-42
2022/04/25 10:31:08;;;;;;;16.10;14.60;;;22.50;42.30;;;;;;5017337;28;20806;-43
2022/04/25 10:33:52;;;;;;;15.87;14.47;;;22.70;42.00;;;;;;5018362;28;20838;-43
2022/04/25 10:36:39;;;;;;;16.90;15.40;;;22.80;42.10;;;;;;5028035;28;22884;-43
2022/04/25 10:39:20;;;;;;;13.37;12.17;;;23.00;40.70;;;;;;5027947;28;20539;-43
2022/04/25 10:44:42;;;;;;;13.37;12.07;;;22.50;40.80;;;;;;5026493;28;20482;-43
2022/04/25 10:47:13;;;;;;;14.57;13.17;;;22.60;41.80;;;;;;5021163;28;20855;-43
2022/04/25 10:49:44;;;;;;;13.03;11.73;;;22.90;41.80;;;;;;5026023;28;20534;-43
2022/04/25 10:52:32;;;;;;;14.03;12.87;;;23.10;42.40;;;;;;5025150;28;20445;-44
2022/04/25 10:55:10;;;;;;;12.57;11.47;;;23.50;42.00;;;;;;5013615;28;20457;-43
2022/04/25 10:57:35;;;;;;;12.70;11.60;;;23.90;41.30;;;;;;5024597;28;20568;-43
2022/04/25 11:00:03;;;;;;;11.57;10.57;;;24.20;39.80;;;;;;5025227;28;20499;-43
2022/04/25 11:02:29;;;;;;;11.60;10.67;;;24.40;39.40;;;;;;5023265;28;20284;-43
2022/04/25 11:05:10;;;;;;;11.03;10.03;;;24.60;39.50;;;;;;5029340;28;20582;-43
2022/04/25 11:07:40;;;;;;;15.33;11.50;;;24.80;39.70;;;;;;5022587;28;20449;-44
2022/04/25 11:10:07;;;;;;;12.10;11.07;;;24.80;38.90;;;;;;5017901;28;20495;-44
2022/04/25 11:12:58;;;;;;;9.10;8.40;;;24.70;38.20;;;;;;5023718;28;20448;-43
2022/04/25 11:15:44;;;;;;;10.77;9.97;;;24.60;38.80;;;;;;5022898;28;20955;-43
2022/04/25 11:18:38;;;;;;;9.57;8.87;;;24.60;38.60;;;;;;5028328;28;21017;-43
2022/04/25 11:21:08;;;;;;;11.17;10.20;;;24.60;37.90;;;;;;5026290;28;20448;-43
2022/04/25 11:23:45;;;;;;;12.73;11.43;;;24.60;38.60;;;;;;5018117;28;20456;-43
2022/04/25 11:26:23;;;;;;;9.50;8.77;;;24.40;39.00;;;;;;5022231;28;20850;-45
2022/04/25 11:28:58;;;;;;;11.70;10.70;;;24.30;39.40;;;;;;5028497;28;20462;-43
2022/04/25 11:31:27;;;;;;;12.87;11.77;;;24.30;39.40;;;;;;5020947;28;20448;-43
2022/04/25 11:33:58;;;;;;;12.97;11.97;;;24.30;39.60;;;;;;5028703;28;20521;-44
2022/04/25 11:36:24;;;;;;;13.47;12.37;;;24.20;40.00;;;;;;5025374;28;20602;-43
2022/04/25 11:41:38;;;;;;;9.97;9.20;;;24.10;38.60;;;;;;5028478;28;20491;-43
2022/04/25 11:44:05;;;;;;;14.20;12.90;;;24.20;39.60;;;;;;5027768;28;20443;-43
2022/04/25 11:46:31;;;;;;;15.43;14.20;;;24.20;39.20;;;;;;5021316;28;20463;-43
2022/04/25 11:48:57;;;;;;;15.03;13.73;;;24.10;39.30;;;;;;5023453;28;20471;-43
2022/04/25 11:51:26;;;;;;;14.20;12.93;;;24.00;39.40;;;;;;5028654;28;20943;-41
2022/04/25 11:53:53;;;;;;;14.20;12.90;;;23.80;39.40;;;;;;5017197;28;20905;-42
2022/04/25 11:56:21;;;;;;;13.87;12.70;;;23.70;40.20;;;;;;5025910;28;20475;-42
2022/04/25 11:58:48;;;;;;;13.57;12.30;;;23.70;40.70;;;;;;5026621;28;21014;-41
2022/04/25 12:01:30;;;;;;;15.37;14.07;;;23.70;39.80;;;;;;5023414;28;20487;-42
2022/04/25 12:04:13;;;;;;;13.00;11.90;;;23.70;39.90;;;;;;5022395;28;20486;-42
2022/04/25 12:06:38;;;;;;;14.30;13.10;;;23.70;40.30;;;;;;5020811;28;20551;-41
2022/04/25 12:17:19;;;;;;;13.03;11.93;;;23.50;40.50;;;;;;5026478;28;20497;-43
2022/04/25 12:19:57;;;;;;;13.37;12.27;;;23.40;41.00;;;;;;5029679;28;20542;-43
2022/04/25 12:22:22;;;;;;;16.40;14.10;;;23.40;41.60;;;;;;5023633;28;20485;-43
2022/04/25 12:24:48;;;;;;;16.40;15.00;;;23.20;41.70;;;;;;5027923;28;20444;-44
2022/04/25 12:27:14;;;;;;;16.83;15.30;;;23.00;42.40;;;;;;5015033;28;20248;-45
2022/04/25 12:30:07;;;;;;;16.87;15.17;;;22.90;43.40;;;;;;5024366;28;20653;-44
2022/04/25 12:32:33;;;;;;;15.57;14.33;;;22.70;44.30;;;;;;5028628;28;20456;-44
2022/04/25 12:34:58;;;;;;;14.80;13.50;;;22.60;45.30;;;;;;5028657;28;20440;-43
2022/04/25 12:37:24;;;;;;;16.47;15.07;;;22.50;45.50;;;;;;5025122;28;20344;-45
2022/04/25 12:40:03;;;;;;;16.60;15.03;;;22.40;46.70;;;;;;5027883;28;20203;-43
2022/04/25 12:42:46;;;;;;;18.00;16.50;;;22.40;46.80;;;;;;5022263;28;20970;-44
2022/04/25 12:45:13;;;;;;;17.00;15.60;;;22.20;47.50;;;;;;5025939;28;20455;-44
2022/04/25 12:47:43;;;;;;;21.13;17.13;;;22.10;48.10;;;;;;5020655;28;20476;-44
2022/04/25 12:50:09;;;;;;;19.27;17.27;;;22.00;49.30;;;;;;5027825;28;20939;-44
2022/04/25 12:52:49;;;;;;;18.80;16.90;;;22.00;49.60;;;;;;5018009;28;20483;-45
2022/04/25 12:55:15;;;;;;;19.63;17.63;;;21.90;50.00;;;;;;5029493;28;20205;-44
2022/04/25 12:57:51;;;;;;;18.90;17.20;;;21.90;50.10;;;;;;5023949;28;20979;-43
2022/04/25 13:00:16;;;;;;;20.83;18.87;;;21.80;49.60;;;;;;5022206;28;20459;-44
2022/04/25 13:02:42;;;;;;;20.23;18.43;;;21.60;49.70;;;;;;5028939;28;20432;-44
2022/04/25 13:05:09;;;;;;;19.30;17.70;;;21.60;50.20;;;;;;5027092;28;20217;-44
2022/04/25 13:07:42;;;;;;;18.47;16.67;;;21.60;51.20;;;;;;5028574;28;20189;-43
2022/04/25 13:10:14;;;;;;;20.60;18.60;;;21.50;50.50;;;;;;5024008;28;20459;-43